Time;durP1;ratioP1;P1;durP2;ratioP2;P2;SDS_P1;SDS_P2;PMS_P1;PMS_P2;Temp;Humidity;BMP_temperature;BMP_pressure;BME280_temperature;BME280_humidity;BME280_pressure;Samples;Min_cycle;Max_cycle;Signal;HPM_P1;HPM_P2
2022/07/07 00:02:01;;;;;;;3.30;1.48;;;18.00;99.90;;;-144.05;49.02;125687.94;6101072;23;20026;-85
2022/07/07 00:04:27;;;;;;;11.00;2.40;;;18.00;99.90;;;-144.05;49.23;125687.94;6100771;23;20430;-86
2022/07/07 00:06:53;;;;;;;6.10;1.95;;;18.00;99.90;;;-144.05;49.37;125687.94;6099326;23;20006;-83
2022/07/07 00:09:20;;;;;;;4.22;1.30;;;18.00;99.90;;;-144.05;49.41;125687.94;6102154;23;20064;-86
2022/07/07 00:11:46;;;;;;;5.45;1.98;;;18.00;99.90;;;-144.05;49.34;125687.94;6076642;23;20021;-85
2022/07/07 00:14:12;;;;;;;5.82;2.10;;;18.00;99.90;;;-144.05;49.57;125687.94;6076838;23;20010;-84
2022/07/07 00:16:38;;;;;;;2.35;1.52;;;18.00;99.90;;;-144.05;49.47;125687.94;6076556;23;20010;-85
2022/07/07 00:19:04;;;;;;;3.60;1.63;;;18.00;99.90;;;-144.05;49.43;125687.94;6076624;23;20018;-89
2022/07/07 00:21:31;;;;;;;6.45;1.63;;;18.00;99.90;;;-144.05;49.45;125687.94;6100779;23;20014;-86
2022/07/07 00:23:57;;;;;;;3.55;1.90;;;18.00;99.90;;;-144.05;49.52;125687.94;6078375;23;20010;-82
2022/07/07 00:26:23;;;;;;;5.15;2.03;;;18.00;99.90;;;-144.05;49.62;125687.94;6101906;23;20037;-84
2022/07/07 00:28:50;;;;;;;4.45;2.05;;;18.00;99.90;;;-144.05;49.93;125687.94;6101959;23;20377;-84
2022/07/07 00:31:16;;;;;;;4.55;2.00;;;17.90;99.90;;;-144.05;50.03;125687.94;6102488;23;20006;-84
2022/07/07 00:33:42;;;;;;;8.32;2.00;;;17.90;99.90;;;-144.05;51.77;125687.94;6104941;23;20103;-83
2022/07/07 00:36:08;;;;;;;5.18;2.08;;;17.90;99.90;;;-144.05;51.78;125687.94;6082491;23;20007;-85
2022/07/07 00:38:35;;;;;;;7.72;2.10;;;17.80;99.90;;;-144.05;51.25;125687.94;6106869;23;20461;-83
2022/07/07 00:41:02;;;;;;;2.65;1.73;;;17.80;99.90;;;-144.05;51.78;125687.94;6074507;23;20007;-86
2022/07/07 00:43:39;;;;;;;9.38;2.25;;;17.70;99.90;;;-144.05;51.92;125687.94;6074759;23;20010;-83
2022/07/07 00:46:06;;;;;;;5.53;2.25;;;17.60;99.90;;;-144.05;52.05;125687.94;6098946;23;20085;-84
2022/07/07 00:48:39;;;;;;;4.88;1.85;;;17.60;99.90;;;-144.05;52.33;125687.94;6114587;23;20003;-83
2022/07/07 00:51:10;;;;;;;4.57;1.95;;;17.50;99.90;;;-144.05;52.14;125687.94;6120312;23;20018;-83
2022/07/07 00:53:39;;;;;;;7.05;2.33;;;17.50;99.90;;;-144.05;52.27;125687.94;6121148;23;20007;-82
2022/07/07 00:56:06;;;;;;;4.38;1.67;;;17.50;99.90;;;-144.05;51.90;125687.94;6120251;23;20046;-82
2022/07/07 00:58:36;;;;;;;2.55;1.88;;;17.50;99.90;;;-144.05;51.83;125687.94;6119963;23;20021;-84
2022/07/07 01:01:04;;;;;;;4.22;2.28;;;17.60;99.90;;;-144.05;51.82;125687.94;6112353;23;20010;-85
2022/07/07 01:03:30;;;;;;;5.80;2.28;;;17.60;99.90;;;-144.05;51.68;125687.94;6114511;23;20009;-82
2022/07/07 01:05:59;;;;;;;5.63;2.17;;;17.70;99.90;;;-144.05;51.63;125687.94;6095858;23;20006;-84
2022/07/07 01:08:26;;;;;;;3.35;2.25;;;17.70;99.90;;;-144.05;51.74;125687.94;6120264;23;20007;-82
2022/07/07 01:10:52;;;;;;;3.17;1.77;;;17.70;99.90;;;-144.05;51.61;125687.94;6120355;23;20026;-82
2022/07/07 01:13:18;;;;;;;4.03;1.90;;;17.70;99.90;;;-144.05;51.76;125687.94;6115623;23;20023;-85
2022/07/07 01:15:44;;;;;;;4.35;2.15;;;17.70;99.90;;;-144.05;51.66;125687.94;6112653;23;20018;-87
2022/07/07 01:18:10;;;;;;;6.03;2.22;;;17.70;99.90;;;-144.05;52.04;125687.94;6112468;23;20006;-87
2022/07/07 01:20:46;;;;;;;8.70;2.00;;;17.70;99.90;;;-144.05;52.26;125687.94;6103175;23;20018;-86
2022/07/07 01:23:14;;;;;;;5.38;2.15;;;17.70;99.90;;;-144.05;52.54;125687.94;6102838;23;20002;-86
2022/07/07 01:25:41;;;;;;;4.07;2.15;;;17.70;99.90;;;-144.05;52.24;125687.94;6076893;23;20448;-87
2022/07/07 01:28:07;;;;;;;7.35;1.92;;;17.70;99.90;;;-144.05;52.59;125687.94;6102365;23;20073;-88
2022/07/07 01:30:33;;;;;;;2.70;1.88;;;17.70;99.90;;;-144.05;52.81;125687.94;6102808;23;20010;-86
2022/07/07 01:32:59;;;;;;;5.95;2.05;;;17.60;99.90;;;-144.05;53.79;125687.94;6082188;23;20031;-84
2022/07/07 01:35:25;;;;;;;4.53;1.52;;;17.60;99.90;;;-144.05;54.24;125687.94;6101661;23;20066;-84
2022/07/07 01:37:51;;;;;;;7.15;2.08;;;17.50;99.90;;;-144.05;54.34;125687.94;6102300;23;20012;-86
2022/07/07 01:40:17;;;;;;;6.82;2.10;;;17.50;99.90;;;-144.05;54.70;125687.94;6101916;23;20013;-87
2022/07/07 01:42:42;;;;;;;5.18;1.70;;;17.40;99.90;;;-144.05;54.57;125687.94;6100489;23;20457;-85
2022/07/07 01:45:09;;;;;;;2.75;1.75;;;17.50;99.90;;;-144.05;55.12;125687.94;6099880;23;20079;-85
2022/07/07 01:47:35;;;;;;;3.45;1.42;;;17.50;99.90;;;-144.05;55.12;125687.94;6077537;23;20030;-83
2022/07/07 01:50:02;;;;;;;4.22;1.98;;;17.50;99.90;;;-144.05;55.22;125687.94;6078210;23;20010;-85
2022/07/07 01:52:28;;;;;;;2.15;1.58;;;17.50;99.90;;;-144.05;55.36;125687.94;6102865;23;20388;-86
2022/07/07 01:54:54;;;;;;;5.85;1.70;;;17.50;99.90;;;-144.05;55.78;125687.94;6103551;23;20006;-85
2022/07/07 01:57:20;;;;;;;3.80;1.50;;;17.50;99.90;;;-144.05;55.43;125687.94;6101821;23;20045;-84
2022/07/07 01:59:46;;;;;;;4.25;1.70;;;17.50;99.90;;;-144.05;55.82;125687.94;6104210;23;20092;-84
2022/07/07 02:02:13;;;;;;;3.80;1.85;;;17.50;99.90;;;-144.05;56.07;125687.94;6101740;23;20014;-86
2022/07/07 02:04:39;;;;;;;4.53;1.88;;;17.50;99.90;;;-144.05;56.12;125687.94;6102032;23;20065;-86
2022/07/07 02:07:05;;;;;;;3.05;2.17;;;17.50;99.90;;;-144.05;56.44;125687.94;6077427;23;20010;-86
2022/07/07 02:09:31;;;;;;;7.75;2.28;;;17.50;99.90;;;-144.05;56.04;125687.94;6103609;23;20003;-85
2022/07/07 02:11:58;;;;;;;5.78;2.60;;;17.50;99.90;;;-144.05;56.26;125687.94;6103497;23;20018;-85
2022/07/07 02:14:23;;;;;;;4.47;2.28;;;17.50;99.90;;;-144.05;56.54;125687.94;6103113;23;20456;-86
2022/07/07 02:16:50;;;;;;;6.03;1.90;;;17.60;99.90;;;-144.05;56.34;125687.94;6102882;23;20007;-86
2022/07/07 02:19:16;;;;;;;7.40;2.83;;;17.60;99.90;;;-144.05;56.90;125687.94;6102496;23;20038;-84
2022/07/07 02:21:43;;;;;;;4.82;2.30;;;17.60;99.90;;;-144.05;56.98;125687.94;6100846;23;20038;-86
2022/07/07 02:24:09;;;;;;;8.57;2.40;;;17.60;99.90;;;-144.05;56.96;125687.94;6102736;23;20460;-85
2022/07/07 02:26:35;;;;;;;4.78;2.42;;;17.60;99.90;;;-144.05;57.34;125687.94;6077140;23;20026;-85
2022/07/07 02:29:03;;;;;;;4.40;2.75;;;17.60;99.90;;;-144.05;57.13;125687.94;6102514;23;20002;-86
2022/07/07 02:31:30;;;;;;;9.57;2.35;;;17.60;99.90;;;-144.05;57.15;125687.94;6102234;23;20010;-84
2022/07/07 02:33:57;;;;;;;2.97;2.42;;;17.60;99.90;;;-144.05;57.58;125687.94;6077126;23;20077;-84
2022/07/07 02:36:23;;;;;;;3.90;2.50;;;17.60;99.90;;;-144.05;57.35;125687.94;6102881;23;20010;-83
2022/07/07 02:38:50;;;;;;;4.80;2.88;;;17.60;99.90;;;-144.05;57.66;125687.94;6101671;23;20049;-86
2022/07/07 02:41:16;;;;;;;7.40;2.95;;;17.50;99.90;;;-144.05;57.83;125687.94;6102017;23;20038;-88
2022/07/07 02:43:42;;;;;;;4.63;3.13;;;17.50;99.90;;;-144.05;58.10;125687.94;6100533;23;20016;-84
2022/07/07 02:46:08;;;;;;;5.22;3.40;;;17.50;99.90;;;-144.05;58.22;125687.94;6103240;23;20078;-83
2022/07/07 02:48:34;;;;;;;5.05;3.20;;;17.50;99.90;;;-144.05;59.07;125687.94;6100532;23;20017;-84
2022/07/07 02:51:00;;;;;;;5.00;3.75;;;17.50;99.90;;;-144.05;59.16;125687.94;6102206;23;20017;-83
2022/07/07 02:53:27;;;;;;;9.20;4.50;;;17.50;99.90;;;-144.05;59.78;125687.94;6099841;23;20349;-85
2022/07/07 02:55:53;;;;;;;9.73;4.40;;;17.50;99.90;;;-144.05;59.80;125687.94;6101869;23;20010;-83
2022/07/07 02:58:19;;;;;;;7.25;4.43;;;17.50;99.90;;;-144.05;59.89;125687.94;6101771;23;20014;-83
2022/07/07 03:00:47;;;;;;;7.50;4.60;;;17.50;99.90;;;-144.05;60.27;125687.94;6076734;23;20006;-82
2022/07/07 03:03:14;;;;;;;10.55;5.25;;;17.50;99.90;;;-144.05;62.12;125687.94;6077067;23;20006;-85
2022/07/07 03:05:40;;;;;;;12.50;5.07;;;17.40;99.90;;;-144.05;62.75;125687.94;6077399;23;20291;-85
2022/07/07 03:08:07;;;;;;;7.00;4.43;;;17.30;99.90;;;-144.05;63.48;125687.94;6078315;23;20009;-83
2022/07/07 03:10:33;;;;;;;8.55;5.22;;;17.20;99.90;;;-144.05;64.10;125687.94;6078315;23;20044;-85
2022/07/07 03:12:59;;;;;;;7.60;5.20;;;17.20;99.90;;;-144.05;64.64;125687.94;6106260;23;20007;-86
2022/07/07 03:15:25;;;;;;;8.70;5.47;;;17.10;99.90;;;-144.05;66.28;125687.94;6113284;23;20033;-85
2022/07/07 03:17:52;;;;;;;11.30;5.55;;;17.10;99.90;;;-144.05;66.83;125687.94;6120670;23;20073;-84
2022/07/07 03:20:19;;;;;;;10.75;5.20;;;17.00;99.90;;;-144.05;67.27;125687.94;6113399;23;20070;-86
2022/07/07 03:22:46;;;;;;;7.72;6.00;;;17.00;99.90;;;-144.05;68.55;125687.94;6101832;23;20050;-84
2022/07/07 03:25:12;;;;;;;10.60;5.25;;;16.90;99.90;;;-144.05;69.09;125687.94;6075439;23;20404;-86
2022/07/07 03:27:39;;;;;;;10.77;6.25;;;16.90;99.90;;;-144.05;70.55;125687.94;6099360;23;20017;-84
2022/07/07 03:30:08;;;;;;;13.88;7.20;;;16.80;99.90;;;-144.05;72.59;125687.94;6102295;23;20078;-86
2022/07/07 03:32:35;;;;;;;9.98;6.05;;;16.70;99.90;;;-144.05;74.18;125687.94;6078259;23;20026;-83
2022/07/07 03:35:02;;;;;;;15.85;7.30;;;16.60;99.90;;;-144.05;75.35;125687.94;6101419;23;20333;-86
2022/07/07 03:37:29;;;;;;;8.32;6.30;;;16.50;99.90;;;-144.05;75.53;125687.94;6079644;23;20010;-82
2022/07/07 03:39:56;;;;;;;10.82;7.28;;;16.40;99.90;;;-144.05;77.06;125687.94;6118419;23;20010;-84
2022/07/07 03:42:22;;;;;;;14.38;7.63;;;16.40;99.90;;;-144.05;77.79;125687.94;6119093;23;19994;-84
2022/07/07 03:44:48;;;;;;;14.02;8.27;;;16.30;99.90;;;-144.05;78.31;125687.94;6119796;23;20026;-84
2022/07/07 03:47:14;;;;;;;12.35;7.88;;;16.30;99.90;;;-144.05;78.42;125687.94;6090833;23;20022;-87
2022/07/07 03:49:40;;;;;;;11.90;8.27;;;16.20;99.90;;;-144.05;78.80;125687.94;6108672;23;20011;-87
2022/07/07 03:52:06;;;;;;;12.77;8.73;;;16.20;99.90;;;-144.05;79.83;125687.94;6107796;23;20061;-86
2022/07/07 03:54:32;;;;;;;13.40;8.52;;;16.20;99.90;;;-144.05;80.47;125687.94;6081409;23;20006;-84
2022/07/07 03:56:58;;;;;;;11.00;8.68;;;16.20;99.90;;;-144.05;80.70;125687.94;6104934;23;20010;-88
2022/07/07 03:59:24;;;;;;;12.45;8.75;;;16.20;99.90;;;-144.05;81.35;125687.94;6079679;23;20025;-84
2022/07/07 04:01:50;;;;;;;13.85;8.85;;;16.10;99.90;;;-144.05;81.46;125687.94;6078951;23;20433;-84
2022/07/07 04:04:16;;;;;;;14.30;9.02;;;16.10;99.90;;;-144.05;81.77;125687.94;6078351;23;20010;-85
2022/07/07 04:06:43;;;;;;;17.25;9.25;;;16.10;99.90;;;-144.05;82.22;125687.94;6079103;23;20010;-87
2022/07/07 04:09:09;;;;;;;13.43;8.68;;;16.10;99.90;;;-144.05;81.92;125687.94;6101490;23;20041;-85
2022/07/07 04:11:36;;;;;;;15.85;8.82;;;16.00;99.90;;;-144.05;82.84;125687.94;6101390;23;20046;-87
2022/07/07 04:14:03;;;;;;;15.82;9.00;;;16.00;99.90;;;-144.05;82.69;125687.94;6103004;23;20026;-85
2022/07/07 04:16:29;;;;;;;10.02;8.20;;;16.00;99.90;;;-144.05;82.39;125687.94;6101456;23;20037;-84
2022/07/07 04:18:58;;;;;;;13.55;7.95;;;16.00;99.90;;;-144.05;82.47;125687.94;6099900;23;20046;-85
2022/07/07 04:21:24;;;;;;;14.60;8.30;;;16.00;99.90;;;-144.05;82.57;125687.94;6076014;23;20019;-86
2022/07/07 04:23:50;;;;;;;11.90;8.18;;;16.00;99.90;;;-144.05;82.94;125687.94;6075779;23;20038;-86
2022/07/07 04:26:16;;;;;;;12.38;7.40;;;16.00;99.90;;;-144.05;82.70;125687.94;6099988;23;20006;-87
2022/07/07 04:28:42;;;;;;;14.35;8.57;;;16.10;99.90;;;-144.05;82.41;125687.94;6101506;23;20006;-86
2022/07/07 04:31:08;;;;;;;11.73;8.13;;;16.10;99.90;;;-144.05;82.07;125687.94;6101700;23;20006;-83
2022/07/07 04:33:34;;;;;;;12.52;7.75;;;16.10;99.90;;;-144.05;81.60;125687.94;6101741;23;20014;-84
2022/07/07 04:36:00;;;;;;;12.93;7.40;;;16.10;99.90;;;-144.05;81.84;125687.94;6100655;23;20440;-83
2022/07/07 04:38:26;;;;;;;11.05;6.53;;;16.20;99.90;;;-144.05;82.05;125687.94;6076266;23;20041;-84
2022/07/07 04:40:52;;;;;;;12.10;7.53;;;16.20;99.90;;;-144.05;81.46;125687.94;6102164;23;20014;-85
2022/07/07 04:43:18;;;;;;;8.60;5.70;;;16.20;99.90;;;-144.05;81.45;125687.94;6102828;23;20444;-83
2022/07/07 04:45:44;;;;;;;11.70;7.38;;;16.20;99.90;;;-144.05;81.32;125687.94;6102204;23;20006;-84
2022/07/07 04:48:10;;;;;;;10.07;7.22;;;16.30;99.90;;;-144.05;81.70;125687.94;6102466;23;20370;-85
2022/07/07 04:50:36;;;;;;;9.50;7.10;;;16.30;99.90;;;-144.05;81.50;125687.94;6100944;23;20026;-85
2022/07/07 04:53:02;;;;;;;9.52;6.35;;;16.30;99.90;;;-144.05;81.41;125687.94;6101521;23;20033;-86
2022/07/07 04:55:28;;;;;;;14.18;7.72;;;16.30;99.90;;;-144.05;81.74;125687.94;6099692;23;20014;-84
2022/07/07 04:57:54;;;;;;;8.98;6.63;;;16.30;99.90;;;-144.05;82.31;125687.94;6099775;23;20011;-85
2022/07/07 05:00:20;;;;;;;11.60;7.03;;;16.30;99.90;;;-144.05;82.44;125687.94;6098154;23;20074;-86
2022/07/07 05:02:46;;;;;;;12.50;7.05;;;16.30;99.90;;;-144.05;82.83;125687.94;6098039;23;20002;-86
2022/07/07 05:05:12;;;;;;;9.93;7.00;;;16.20;99.90;;;-144.05;82.91;125687.94;6099748;23;20006;-86
2022/07/07 05:07:38;;;;;;;11.57;7.00;;;16.20;99.90;;;-144.05;83.41;125687.94;6074592;23;20013;-85
2022/07/07 05:10:05;;;;;;;12.90;8.00;;;16.20;99.90;;;-144.05;83.72;125687.94;6098138;23;20065;-84
2022/07/07 05:12:31;;;;;;;11.65;6.65;;;16.20;99.90;;;-144.05;83.56;125687.94;6098410;23;20030;-86
2022/07/07 05:14:56;;;;;;;12.75;7.32;;;16.20;99.90;;;-144.05;84.64;125687.94;6097742;23;20089;-88
2022/07/07 05:17:22;;;;;;;11.05;7.85;;;16.20;99.90;;;-144.05;84.66;125687.94;6100685;23;20057;-88
2022/07/07 05:19:48;;;;;;;10.80;7.78;;;16.20;99.90;;;-144.05;85.83;125687.94;6075163;23;20049;-88
2022/07/07 05:22:14;;;;;;;14.23;8.60;;;16.20;99.90;;;-144.05;85.75;125687.94;6075583;23;20118;-86
2022/07/07 05:24:40;;;;;;;12.27;8.63;;;16.20;99.90;;;-144.05;86.06;125687.94;6101352;23;20085;-89
2022/07/07 05:27:06;;;;;;;12.70;8.10;;;16.20;99.90;;;-144.05;85.42;125687.94;6102124;23;20017;-87
2022/07/07 05:29:32;;;;;;;9.00;6.68;;;16.30;99.90;;;-144.05;85.54;125687.94;6101502;23;20424;-87
2022/07/07 05:31:58;;;;;;;10.25;6.85;;;16.30;99.90;;;-144.05;85.36;125687.94;6101514;23;20073;-88
2022/07/07 05:34:24;;;;;;;11.30;7.40;;;16.30;99.90;;;-144.05;85.63;125687.94;6102960;23;20018;-87
2022/07/07 05:36:50;;;;;;;10.30;6.45;;;16.30;99.90;;;-144.05;85.65;125687.94;6104004;23;20074;-90
2022/07/07 05:39:16;;;;;;;6.80;5.90;;;16.30;99.90;;;-144.05;85.67;125687.94;6108536;23;20007;-86
2022/07/07 05:41:43;;;;;;;7.78;5.15;;;16.30;99.90;;;-144.05;86.49;125687.94;6109872;23;20017;-87
2022/07/07 05:44:09;;;;;;;5.95;4.45;;;16.20;99.90;;;-144.05;86.64;125687.94;6104546;23;20013;-87
2022/07/07 05:46:35;;;;;;;6.88;3.65;;;16.20;99.90;;;-144.05;86.75;125687.94;6072500;23;20013;-86
2022/07/07 05:49:02;;;;;;;4.40;4.00;;;16.20;99.90;;;-144.05;86.77;125687.94;6098290;23;20074;-86
2022/07/07 05:51:28;;;;;;;6.03;3.78;;;16.10;99.90;;;-144.05;87.01;125687.94;6072487;23;20015;-89
2022/07/07 05:53:54;;;;;;;5.65;4.25;;;16.10;99.90;;;-144.05;87.45;125687.94;6097056;23;20014;-87
2022/07/07 05:56:20;;;;;;;5.15;3.50;;;16.10;99.90;;;-144.05;87.40;125687.94;6098507;23;20021;-88
2022/07/07 05:58:46;;;;;;;6.32;4.15;;;16.10;99.90;;;-144.05;87.50;125687.94;6072463;23;20097;-87
2022/07/07 06:01:12;;;;;;;4.57;3.60;;;16.10;99.90;;;-144.05;87.72;125687.94;6096311;23;20381;-88
2022/07/07 06:03:38;;;;;;;8.18;3.92;;;16.20;99.90;;;-144.05;88.03;125687.94;6098158;23;20077;-88
2022/07/07 06:06:04;;;;;;;8.68;4.47;;;16.20;99.90;;;-144.05;87.64;125687.94;6098231;23;20014;-88
2022/07/07 06:08:30;;;;;;;8.05;4.65;;;16.30;99.90;;;-144.05;87.62;125687.94;6073310;23;20026;-87
2022/07/07 06:10:56;;;;;;;15.57;4.97;;;16.40;99.90;;;-144.05;86.99;125687.94;6072596;23;20021;-87
2022/07/07 06:13:22;;;;;;;9.45;4.20;;;16.50;99.90;;;-144.05;86.87;125687.94;6097381;23;20341;-88
2022/07/07 06:15:48;;;;;;;6.10;3.47;;;16.50;99.90;;;-144.05;86.39;125687.94;6095053;23;20010;-88
2022/07/07 06:18:14;;;;;;;6.38;3.40;;;16.30;99.90;;;-144.05;86.33;125687.94;6095122;23;20014;-86
2022/07/07 06:20:41;;;;;;;8.15;3.75;;;16.40;99.90;;;-144.05;86.17;125687.94;6096547;23;20010;-88
2022/07/07 06:23:07;;;;;;;9.27;4.07;;;16.30;99.90;;;-144.05;86.64;125687.94;6094710;23;20082;-87
2022/07/07 06:25:34;;;;;;;11.18;4.70;;;16.40;99.90;;;-144.05;86.13;125687.94;6096825;23;20007;-88
2022/07/07 06:28:00;;;;;;;10.98;5.30;;;16.30;99.90;;;-144.05;85.92;125687.94;6096715;23;20013;-88
2022/07/07 06:30:27;;;;;;;8.48;5.20;;;16.40;99.90;;;-144.05;85.65;125687.94;6071397;23;20010;-88
2022/07/07 06:32:53;;;;;;;9.02;5.43;;;16.50;99.90;;;-144.05;84.69;125687.94;6097782;23;20408;-87
2022/07/07 06:35:21;;;;;;;8.35;5.60;;;16.50;99.90;;;-144.05;84.91;125687.94;6099396;23;20006;-88
2022/07/07 06:37:48;;;;;;;7.72;5.68;;;16.50;99.90;;;-144.05;84.96;125687.94;6098635;23;20025;-88
2022/07/07 06:40:15;;;;;;;10.32;6.03;;;16.50;99.90;;;-144.05;85.27;125687.94;6074019;23;20046;-88
2022/07/07 06:42:42;;;;;;;5.60;4.93;;;16.50;99.90;;;-144.05;84.98;125687.94;6100747;23;20013;-89
2022/07/07 06:45:08;;;;;;;8.55;4.97;;;16.50;99.90;;;-144.05;85.01;125687.94;6075163;23;20007;-87
2022/07/07 06:47:34;;;;;;;7.30;4.72;;;16.50;99.90;;;-144.05;84.72;125687.94;6075834;23;20006;-87
2022/07/07 06:50:00;;;;;;;6.20;4.20;;;16.60;99.90;;;-144.05;83.83;125687.94;6101103;23;20574;-86
2022/07/07 06:52:26;;;;;;;4.05;3.28;;;16.70;99.90;;;-144.05;83.26;125687.94;6101855;23;20025;-85
2022/07/07 06:54:52;;;;;;;4.78;3.00;;;16.80;99.90;;;-144.05;81.92;125687.94;6074995;23;20336;-87
2022/07/07 06:57:18;;;;;;;6.53;3.75;;;16.90;99.90;;;-144.05;82.31;125687.94;6099110;23;20033;-88
2022/07/07 06:59:44;;;;;;;7.07;4.13;;;16.90;99.90;;;-144.05;82.99;125687.94;6099697;23;20010;-86
2022/07/07 07:02:10;;;;;;;4.80;3.30;;;17.00;99.90;;;-144.05;82.81;125687.94;6100818;23;20029;-88
2022/07/07 07:04:36;;;;;;;3.53;3.17;;;17.00;99.90;;;-144.05;82.61;125687.94;6101806;23;20006;-88
2022/07/07 07:07:02;;;;;;;4.00;3.03;;;17.00;99.90;;;-144.05;82.48;125687.94;6099641;23;20076;-87
2022/07/07 07:09:28;;;;;;;5.47;3.63;;;17.00;99.90;;;-144.05;82.15;125687.94;6099523;23;20442;-87
2022/07/07 07:11:54;;;;;;;4.15;2.50;;;17.10;99.90;;;-144.05;81.14;125687.94;6101882;23;20010;-88
2022/07/07 07:14:22;;;;;;;4.22;2.80;;;17.00;99.90;;;-144.05;80.96;125687.94;6075395;23;20444;-84
2022/07/07 07:16:48;;;;;;;4.32;2.35;;;17.00;99.90;;;-144.05;81.41;125687.94;6101027;23;20016;-86
2022/07/07 07:19:14;;;;;;;3.28;1.80;;;17.00;99.90;;;-144.05;80.49;125687.94;6101274;23;20386;-88
2022/07/07 07:21:40;;;;;;;4.88;1.48;;;16.90;99.90;;;-144.05;80.35;125687.94;6100838;23;20013;-88
2022/07/07 07:24:07;;;;;;;4.15;1.73;;;16.90;99.90;;;-144.05;80.49;125687.94;6100084;23;20006;-89
2022/07/07 07:26:33;;;;;;;2.15;1.00;;;16.80;99.90;;;-144.05;79.85;125687.94;6099693;23;20006;-87
2022/07/07 07:28:59;;;;;;;1.33;0.93;;;16.70;99.90;;;-144.05;80.22;125687.94;6073425;23;20007;-86
2022/07/07 07:31:25;;;;;;;1.95;0.80;;;16.50;99.90;;;-144.05;79.87;125687.94;6099226;23;20050;-85
2022/07/07 07:33:51;;;;;;;2.95;1.10;;;16.40;99.90;;;-144.05;80.56;125687.94;6099637;23;20011;-86
2022/07/07 07:36:17;;;;;;;1.52;0.70;;;16.40;99.90;;;-144.05;80.20;125687.94;6100721;23;20026;-87
2022/07/07 07:38:44;;;;;;;3.30;0.80;;;16.50;99.90;;;-144.05;79.08;125687.94;6075676;23;20089;-86
2022/07/07 07:41:12;;;;;;;1.95;0.90;;;16.40;99.90;;;-144.05;78.82;125687.94;6101297;23;20337;-87
2022/07/07 07:43:39;;;;;;;3.70;0.80;;;16.50;99.90;;;-144.05;78.26;125687.94;6100508;23;20073;-87
2022/07/07 07:46:05;;;;;;;3.35;1.00;;;16.60;99.90;;;-144.05;77.89;125687.94;6073207;23;20472;-86
2022/07/07 07:48:31;;;;;;;2.65;0.70;;;16.90;99.90;;;-144.05;75.57;125687.94;6099071;23;20319;-86
2022/07/07 07:50:58;;;;;;;5.93;0.90;;;17.20;99.90;;;-144.05;73.40;125687.94;6076127;23;20132;-85
2022/07/07 07:53:24;;;;;;;5.30;1.00;;;17.50;99.90;;;-144.05;72.27;125687.94;6102204;23;20352;-86
2022/07/07 07:55:50;;;;;;;5.43;1.50;;;17.90;99.90;;;-144.05;72.88;125687.94;6096338;23;20017;-86
2022/07/07 07:58:16;;;;;;;1.20;0.65;;;18.20;99.90;;;-144.05;71.35;125687.94;6072056;23;20018;-86
2022/07/07 08:00:43;;;;;;;5.15;1.30;;;18.40;99.90;;;-144.05;70.58;125687.94;6072377;23;20433;-85
2022/07/07 08:03:09;;;;;;;3.35;0.80;;;18.50;99.90;;;-144.05;70.58;125687.94;6072486;23;20002;-86
2022/07/07 08:05:35;;;;;;;5.88;1.27;;;18.60;99.90;;;-144.05;69.21;125687.94;6072623;23;20110;-85
2022/07/07 08:08:01;;;;;;;3.97;1.00;;;18.50;99.90;;;-144.05;69.88;125687.94;6095660;23;20046;-86
2022/07/07 08:10:27;;;;;;;1.75;1.10;;;18.50;99.90;;;-144.05;70.91;125687.94;6072051;23;20326;-87
2022/07/07 08:12:53;;;;;;;1.67;0.98;;;18.40;99.90;;;-144.05;70.81;125687.94;6097384;23;20014;-88
2022/07/07 08:15:20;;;;;;;4.68;1.35;;;18.30;99.90;;;-144.05;71.73;125687.94;6097171;23;20007;-87
2022/07/07 08:17:48;;;;;;;6.65;1.58;;;18.10;99.90;;;-144.05;72.22;125687.94;6097463;23;20006;-88
2022/07/07 08:20:15;;;;;;;4.10;1.60;;;17.80;99.90;;;-144.05;73.99;125687.94;6097135;23;20017;-86
2022/07/07 08:22:42;;;;;;;4.28;1.40;;;17.50;99.90;;;-144.05;73.91;125687.94;6072154;23;20332;-89
2022/07/07 08:25:08;;;;;;;4.85;1.52;;;17.40;99.90;;;-144.05;75.27;125687.94;6096365;23;20014;-88
2022/07/07 08:27:34;;;;;;;3.47;1.15;;;17.10;99.90;;;-144.05;75.11;125687.94;6095694;23;20010;-88
2022/07/07 08:30:01;;;;;;;3.60;0.77;;;17.00;99.90;;;-144.05;74.56;125687.94;6095379;23;20007;-87
2022/07/07 08:32:27;;;;;;;2.80;0.90;;;16.90;99.90;;;-144.05;74.30;125687.94;6097382;23;20086;-87
2022/07/07 08:34:53;;;;;;;1.48;0.52;;;16.70;99.90;;;-144.05;74.11;125687.94;6097866;23;20014;-86
2022/07/07 08:37:19;;;;;;;1.35;0.40;;;16.60;99.90;;;-144.05;73.65;125687.94;6072345;23;20029;-86
2022/07/07 08:39:45;;;;;;;1.95;0.80;;;16.50;99.90;;;-144.05;74.44;125687.94;6097565;23;20006;-87
2022/07/07 08:42:12;;;;;;;1.80;0.70;;;16.60;99.90;;;-144.05;74.52;125687.94;6096281;23;20060;-86
2022/07/07 08:44:38;;;;;;;4.53;0.68;;;16.70;99.90;;;-144.05;73.38;125687.94;6097030;23;20065;-87
2022/07/07 08:47:05;;;;;;;2.13;0.40;;;16.90;99.90;;;-144.05;73.80;125687.94;6097139;23;20014;-86
2022/07/07 08:49:31;;;;;;;5.80;0.95;;;17.30;99.90;;;-144.05;71.47;125687.94;6073865;23;20082;-85
2022/07/07 08:51:58;;;;;;;1.98;0.70;;;17.50;99.90;;;-144.05;70.95;125687.94;6098385;23;20022;-86
2022/07/07 08:54:27;;;;;;;1.80;0.80;;;17.90;99.90;;;-144.05;69.92;125687.94;6099663;23;20082;-86
2022/07/07 08:56:55;;;;;;;2.20;0.75;;;18.20;99.90;;;-144.05;68.92;125687.94;6101920;23;20157;-85
2022/07/07 08:59:22;;;;;;;3.38;1.00;;;18.30;99.90;;;-144.05;68.88;125687.94;6101887;23;20084;-84
2022/07/07 09:02:01;;;;;;;3.50;1.10;;;18.60;99.90;;;-144.05;67.89;125687.94;6101861;23;20042;-87
2022/07/07 09:04:28;;;;;;;1.98;0.80;;;18.90;99.90;;;-144.05;65.13;125687.94;6100659;23;20009;-87
2022/07/07 09:07:05;;;;;;;4.50;0.80;;;19.40;99.90;;;-144.05;63.67;125687.94;6074557;23;20145;-86
2022/07/07 09:09:43;;;;;;;1.35;0.77;;;19.80;99.90;;;-144.05;62.25;125687.94;6099623;23;20085;-86
2022/07/07 09:12:16;;;;;;;4.25;1.30;;;20.50;99.90;;;-144.05;58.84;125687.94;6098547;23;20010;-87
2022/07/07 09:14:52;;;;;;;4.20;1.10;;;21.00;99.90;;;-144.05;56.52;125687.94;6072801;23;20440;-87
2022/07/07 09:17:34;;;;;;;;;;;21.40;99.90;;;-144.05;57.85;125687.94;6098701;23;20025;-85
2022/07/07 09:20:13;;;;;;;3.65;1.23;;;21.10;99.90;;;-144.05;59.82;125687.94;6096367;23;19944;-86
2022/07/07 09:22:56;;;;;;;3.25;1.00;;;20.30;99.90;;;-144.05;62.90;125687.94;6098872;23;20079;-87
2022/07/07 09:25:26;;;;;;;3.13;1.00;;;19.40;99.90;;;-144.05;67.76;125687.94;6097069;23;20033;-86
2022/07/07 09:28:04;;;;;;;6.15;1.25;;;18.60;99.90;;;-144.05;69.58;125687.94;6098780;23;20003;-88
2022/07/07 09:30:44;;;;;;;3.47;1.02;;;18.10;99.90;;;-144.05;71.35;125687.94;6073504;23;20010;-85
2022/07/07 09:33:26;;;;;;;4.53;1.00;;;18.00;99.90;;;-144.05;69.38;125687.94;6073854;23;20049;-88
2022/07/07 09:38:42;;;;;;;1.98;0.90;;;18.30;99.90;;;-144.05;67.04;125687.94;6099499;23;20050;-83
2022/07/07 09:41:15;;;;;;;5.20;0.82;;;18.70;99.90;;;-144.05;65.09;125687.94;6073950;23;20014;-86
2022/07/07 09:43:45;;;;;;;1.70;0.65;;;18.80;99.90;;;-144.05;64.18;125687.94;6101054;23;20392;-86
2022/07/07 09:46:26;;;;;;;3.50;1.20;;;19.00;99.90;;;-144.05;64.54;125687.94;6100273;23;20003;-87
2022/07/07 09:48:58;;;;;;;4.57;1.20;;;19.20;99.90;;;-144.05;64.73;125687.94;6126103;23;20021;-84
2022/07/07 09:51:33;;;;;;;7.40;1.48;;;19.40;99.90;;;-144.05;64.85;125687.94;6137213;23;20020;-84
2022/07/07 09:54:17;;;;;;;3.53;1.00;;;19.50;99.90;;;-144.05;64.54;125687.94;6135991;23;20005;-84
2022/07/07 09:56:47;;;;;;;3.65;1.05;;;19.50;99.90;;;-144.05;64.41;125687.94;6135058;23;20010;-85
2022/07/07 09:59:22;;;;;;;3.75;0.70;;;19.50;99.90;;;-144.05;63.80;125687.94;6131705;23;20082;-87
2022/07/07 10:01:55;;;;;;;1.27;0.60;;;19.50;99.90;;;-144.05;62.03;125687.94;6159138;23;20010;-85